createdAt,value
2018-06-14T00:02:07.569Z,7.30
2018-06-14T00:04:36.344Z,7.30
2018-06-14T00:07:22.318Z,7.40
2018-06-14T00:09:53.943Z,7.40
2018-06-14T00:12:23.013Z,7.30
2018-06-14T00:14:52.907Z,7.20
2018-06-14T00:17:21.901Z,7.30
2018-06-14T00:20:05.617Z,7.30
2018-06-14T00:26:53.084Z,7.30
2018-06-14T00:29:22.964Z,7.30
2018-06-14T00:31:51.299Z,7.40
2018-06-14T00:34:19.941Z,7.30
2018-06-14T00:36:51.591Z,7.20
2018-06-14T00:39:21.887Z,7.20
2018-06-14T00:41:50.020Z,7.20
2018-06-14T00:44:18.581Z,7.20
2018-06-14T00:46:46.997Z,7.20
2018-06-14T00:49:15.245Z,7.20
2018-06-14T00:51:44.030Z,7.20
2018-06-14T00:54:13.241Z,7.20
2018-06-14T00:57:01.085Z,7.20
2018-06-14T00:59:34.212Z,7.20
2018-06-14T01:02:05.917Z,7.10
2018-06-14T01:04:34.461Z,7.00
2018-06-14T01:07:04.052Z,7.00
2018-06-14T01:09:49.635Z,6.90
2018-06-14T01:12:18.173Z,6.80
2018-06-14T01:14:53.497Z,6.70
2018-06-14T01:20:03.556Z,6.50
2018-06-14T01:22:34.729Z,6.50
2018-06-14T01:25:04.313Z,6.50
2018-06-14T01:27:34.646Z,6.40
2018-06-14T01:30:07.674Z,6.40
2018-06-14T01:32:48.781Z,6.30
2018-06-14T01:35:18.130Z,6.20
2018-06-14T01:37:57.973Z,6.20
2018-06-14T01:40:27.337Z,6.10
2018-06-14T01:42:57.054Z,6.00
2018-06-14T01:45:28.850Z,5.90
2018-06-14T01:48:05.734Z,5.80
2018-06-14T01:50:39.293Z,5.80
2018-06-14T01:53:17.044Z,5.80
2018-06-14T01:58:34.601Z,5.60
2018-06-14T02:04:11.674Z,5.60
2018-06-14T02:06:47.502Z,5.60
2018-06-14T02:09:22.919Z,5.50
2018-06-14T02:28:34.537Z,5.30
2018-06-14T02:31:16.739Z,5.00
2018-06-14T02:40:12.611Z,5.00
2018-06-14T02:47:47.914Z,5.00
2018-06-14T02:50:33.680Z,4.90
2018-06-14T02:53:13.821Z,5.10
2018-06-14T02:56:15.309Z,5.20
2018-06-14T02:58:50.394Z,5.30
2018-06-14T03:03:30.378Z,5.50
2018-06-14T03:17:10.191Z,6.10
2018-06-14T03:26:37.217Z,7.60
2018-06-14T03:29:08.107Z,7.60
2018-06-14T03:31:38.118Z,7.50
2018-06-14T03:34:05.819Z,7.80
2018-06-14T03:36:33.265Z,8.70
2018-06-14T03:39:00.644Z,9.30
2018-06-14T03:41:28.363Z,9.70
2018-06-14T03:46:41.763Z,10.70
2018-06-14T03:49:09.550Z,11.50
2018-06-14T03:51:37.154Z,12.00
2018-06-14T03:54:04.981Z,12.10
2018-06-14T03:56:37.410Z,12.20
2018-06-14T04:03:04.893Z,15.70
2018-06-14T04:08:53.410Z,19.90
2018-06-14T04:18:51.872Z,17.80
2018-06-14T04:21:19.594Z,16.60
2018-06-14T04:23:47.619Z,15.40
2018-06-14T04:26:15.728Z,14.90
2018-06-14T04:28:43.642Z,13.90
2018-06-14T04:31:12.215Z,12.80
2018-06-14T04:33:40.082Z,12.90
2018-06-14T04:36:07.889Z,13.30
2018-06-14T04:38:35.501Z,13.40
2018-06-14T04:41:03.022Z,13.40
2018-06-14T04:43:30.601Z,12.90
2018-06-14T04:45:58.222Z,12.70
2018-06-14T04:48:26.099Z,12.70
2018-06-14T04:50:53.998Z,12.40
2018-06-14T04:53:21.710Z,12.30
2018-06-14T04:55:50.250Z,12.30
2018-06-14T04:58:18.176Z,12.60
2018-06-14T05:00:47.387Z,13.00
2018-06-14T05:03:15.705Z,13.40
2018-06-14T05:05:43.524Z,13.50
2018-06-14T05:08:16.864Z,13.30
2018-06-14T05:10:44.852Z,13.20
2018-06-14T05:13:13.015Z,13.30
2018-06-14T05:15:41.007Z,12.90
2018-06-14T05:20:36.380Z,12.70
2018-06-14T05:23:05.022Z,12.70
2018-06-14T05:25:32.800Z,12.70
2018-06-14T05:28:01.803Z,12.80
2018-06-14T05:30:30.812Z,13.00
2018-06-14T05:35:27.251Z,13.20
2018-06-14T05:38:00.437Z,13.50
2018-06-14T05:40:28.389Z,13.70
2018-06-14T05:42:56.041Z,13.80
2018-06-14T05:45:26.121Z,14.10
2018-06-14T05:47:54.390Z,13.90
2018-06-14T05:50:22.911Z,14.10
2018-06-14T05:52:50.845Z,14.20
2018-06-14T05:55:20.599Z,14.80
2018-06-14T05:57:48.936Z,15.40
2018-06-14T06:00:18.023Z,16.10
2018-06-14T06:02:48.647Z,16.40
2018-06-14T06:05:17.091Z,16.70
2018-06-14T06:07:46.010Z,16.90
2018-06-14T06:10:14.090Z,17.40
2018-06-14T06:12:42.642Z,17.90
2018-06-14T06:17:52.204Z,17.20
2018-06-14T06:20:22.144Z,16.70
2018-06-14T06:23:19.853Z,16.40
2018-06-14T06:26:00.028Z,16.20
2018-06-14T06:28:30.167Z,16.20
2018-06-14T06:30:58.916Z,16.50
2018-06-14T06:36:27.068Z,16.00
2018-06-14T06:38:54.839Z,16.10
2018-06-14T06:41:22.750Z,16.30
2018-06-14T06:43:50.461Z,16.40
2018-06-14T06:46:18.450Z,16.30
2018-06-14T06:48:48.114Z,16.20
2018-06-14T06:51:16.583Z,16.20
2018-06-14T06:53:54.525Z,16.10
2018-06-14T06:56:24.187Z,15.80
2018-06-14T06:58:52.398Z,15.50
2018-06-14T07:01:21.722Z,15.40
2018-06-14T07:03:50.592Z,15.10
2018-06-14T07:06:25.963Z,15.10
2018-06-14T07:08:57.134Z,15.30
2018-06-14T07:14:09.593Z,15.60
2018-06-14T07:16:38.307Z,15.80
2018-06-14T07:20:43.582Z,16.00
2018-06-14T07:25:47.901Z,15.90
2018-06-14T07:28:21.784Z,15.80
2018-06-14T07:30:49.699Z,15.90
2018-06-14T07:33:43.390Z,16.00
2018-06-14T07:36:21.248Z,15.80
2018-06-14T07:38:50.800Z,15.50
2018-06-14T07:41:18.184Z,15.40
2018-06-14T07:43:57.077Z,15.20
2018-06-14T07:46:26.118Z,14.90
2018-06-14T07:54:29.201Z,15.00
2018-06-14T07:56:56.625Z,15.10
2018-06-14T07:59:51.688Z,15.10
2018-06-14T08:07:15.622Z,14.80
2018-06-14T08:09:43.221Z,14.70
2018-06-14T08:12:10.851Z,15.70
2018-06-14T08:14:38.506Z,16.00
2018-06-14T08:26:11.932Z,16.90
2018-06-14T08:28:40.530Z,17.90
2018-06-14T08:31:08.423Z,18.30
2018-06-14T08:33:36.556Z,18.20
2018-06-14T08:36:04.517Z,18.00
2018-06-14T08:39:10.796Z,18.00
2018-06-14T08:41:42.437Z,18.10
2018-06-14T08:47:02.242Z,18.10
2018-06-14T08:53:26.329Z,17.80
2018-06-14T08:55:55.469Z,17.70
2018-06-14T09:03:13.325Z,18.20
2018-06-14T09:05:42.357Z,18.60
2018-06-14T09:08:17.849Z,18.30
2018-06-14T09:10:48.623Z,18.30
2018-06-14T09:13:22.208Z,17.90
2018-06-14T09:16:05.732Z,18.30
2018-06-14T09:18:35.909Z,18.50
2018-06-14T09:21:05.234Z,18.80
2018-06-14T09:24:04.641Z,19.00
2018-06-14T09:29:23.365Z,19.40
2018-06-14T09:31:52.887Z,19.00
2018-06-14T09:34:47.525Z,18.70
2018-06-14T09:37:18.156Z,19.00
2018-06-14T09:39:50.313Z,19.50
2018-06-14T09:45:45.708Z,20.00
2018-06-14T09:48:24.207Z,20.10
2018-06-14T09:54:19.773Z,19.70
2018-06-14T09:56:49.773Z,19.90
2018-06-14T09:59:17.740Z,19.50
2018-06-14T10:05:49.137Z,19.30
2018-06-14T10:08:20.192Z,19.50
2018-06-14T10:18:49.815Z,19.60
2018-06-14T10:36:43.259Z,20.10
2018-06-14T10:39:25.468Z,20.30
2018-06-14T10:41:58.477Z,19.90
2018-06-14T10:48:59.398Z,19.40
2018-06-14T11:02:15.218Z,20.20
2018-06-14T11:04:46.509Z,19.70
2018-06-14T11:16:11.003Z,20.10
2018-06-14T11:19:03.999Z,19.80
2018-06-14T11:21:47.273Z,19.60
2018-06-14T11:24:17.247Z,19.50
2018-06-14T11:27:21.869Z,19.80
2018-06-14T11:30:35.800Z,20.30
2018-06-14T11:33:07.927Z,20.60
2018-06-14T11:37:23.622Z,20.40
2018-06-14T11:46:18.124Z,21.10
2018-06-14T11:53:15.110Z,21.20
2018-06-14T11:57:23.369Z,21.10
2018-06-14T15:59:58.197Z,21.30
2018-06-14T16:02:30.130Z,21.30
2018-06-14T17:16:22.005Z,20.00
2018-06-14T17:57:12.612Z,19.20
2018-06-14T17:59:43.561Z,18.90
2018-06-14T18:02:23.001Z,18.80
2018-06-14T18:04:59.135Z,18.60
2018-06-14T18:07:48.696Z,18.50
2018-06-14T18:10:21.504Z,18.40
2018-06-14T18:15:44.708Z,18.30
2018-06-14T18:18:13.319Z,18.20
2018-06-14T18:26:37.701Z,17.90
2018-06-14T18:29:08.259Z,17.90
2018-06-14T18:31:36.137Z,17.80
2018-06-14T18:34:04.311Z,17.70
2018-06-14T18:36:33.885Z,17.70
2018-06-14T18:39:02.718Z,17.60
2018-06-14T18:41:33.097Z,17.50
2018-06-14T18:44:03.531Z,17.50
2018-06-14T18:46:44.830Z,17.50
2018-06-14T18:49:18.557Z,17.50
2018-06-14T18:51:50.975Z,17.30
2018-06-14T18:54:24.464Z,17.20
2018-06-14T18:56:55.277Z,17.20
2018-06-14T18:59:39.241Z,17.20
2018-06-14T19:02:25.052Z,17.10
2018-06-14T19:04:58.850Z,17.00
2018-06-14T19:07:35.045Z,17.10
2018-06-14T19:12:30.745Z,17.10
2018-06-14T19:16:42.376Z,17.00
2018-06-14T19:20:17.423Z,17.00
2018-06-14T19:23:02.148Z,17.00
2018-06-14T19:25:44.234Z,16.90
2018-06-14T19:28:19.430Z,16.80
2018-06-14T19:31:02.980Z,16.80
2018-06-14T19:33:37.475Z,16.70
2018-06-14T19:36:06.571Z,16.70
2018-06-14T19:38:39.015Z,16.60
2018-06-14T19:41:11.710Z,16.70
2018-06-14T19:43:41.091Z,16.70
2018-06-14T19:48:19.736Z,16.60
2018-06-14T19:50:48.270Z,16.50
2018-06-14T19:53:16.904Z,16.40
2018-06-14T19:55:45.289Z,16.40
2018-06-14T19:58:16.120Z,16.30
2018-06-14T20:00:46.693Z,16.20
2018-06-14T20:03:18.370Z,16.20
2018-06-14T20:05:51.128Z,16.10
2018-06-14T20:08:25.446Z,16.10
2018-06-14T20:13:42.637Z,15.90
2018-06-14T20:16:10.164Z,15.90
2018-06-14T20:18:37.584Z,15.70
2018-06-14T20:21:05.672Z,15.50
2018-06-14T20:23:33.153Z,15.30
2018-06-14T20:26:00.946Z,15.30
2018-06-14T20:28:29.223Z,15.10
2018-06-14T20:30:57.130Z,15.00
2018-06-14T20:33:24.841Z,14.90
2018-06-14T20:35:52.296Z,14.90
2018-06-14T20:38:20.055Z,14.90
2018-06-14T20:43:15.277Z,14.80
2018-06-14T20:45:43.252Z,14.80
2018-06-14T20:48:11.362Z,14.80
2018-06-14T20:50:39.221Z,14.70
2018-06-14T20:53:07.128Z,14.80
2018-06-14T20:55:35.154Z,14.70
2018-06-14T20:58:02.767Z,14.70
2018-06-14T21:00:30.434Z,14.70
2018-06-14T21:02:57.914Z,14.70
2018-06-14T21:05:25.547Z,14.60
2018-06-14T21:10:20.803Z,14.60
2018-06-14T21:12:48.306Z,14.50
2018-06-14T21:15:15.960Z,14.40
2018-06-14T21:17:43.442Z,14.30
2018-06-14T21:20:10.966Z,14.20
2018-06-14T21:22:38.565Z,14.20
2018-06-14T21:25:06.139Z,14.20
2018-06-14T21:27:33.722Z,14.20
2018-06-14T21:30:01.285Z,14.10
2018-06-14T21:32:28.846Z,14.10
2018-06-14T21:34:56.305Z,14.10
2018-06-14T21:37:23.792Z,14.10
2018-06-14T21:39:51.235Z,14.10
2018-06-14T21:42:18.701Z,14.00
2018-06-14T21:44:46.258Z,14.10
2018-06-14T21:47:13.723Z,14.10
2018-06-14T21:49:41.300Z,14.00
2018-06-14T21:52:08.782Z,14.00
2018-06-14T21:54:36.366Z,13.90
2018-06-14T21:57:04.013Z,14.10
2018-06-14T21:59:31.640Z,14.00
2018-06-14T22:01:59.307Z,14.00
2018-06-14T22:04:26.826Z,14.00
2018-06-14T22:06:54.527Z,13.90
2018-06-14T22:09:22.044Z,13.90
2018-06-14T22:11:49.466Z,13.90
2018-06-14T22:14:16.972Z,13.90
2018-06-14T22:16:44.608Z,13.90
2018-06-14T22:19:12.165Z,13.90
2018-06-14T22:21:39.720Z,13.90
2018-06-14T22:24:07.219Z,13.90
2018-06-14T22:26:34.765Z,13.80
2018-06-14T22:29:02.271Z,13.80
2018-06-14T22:31:29.843Z,13.80
2018-06-14T22:34:09.076Z,13.90
2018-06-14T22:36:37.046Z,13.90
2018-06-14T22:39:06.990Z,14.00
2018-06-14T22:41:35.131Z,14.00
2018-06-14T22:44:03.330Z,13.90
2018-06-14T22:46:31.168Z,13.90
2018-06-14T22:48:59.152Z,13.90
2018-06-14T22:51:36.823Z,13.90
2018-06-14T22:54:04.707Z,13.90
2018-06-14T22:56:32.796Z,13.90
2018-06-14T22:59:00.554Z,13.90
2018-06-14T23:01:34.076Z,13.90
2018-06-14T23:04:02.214Z,13.90
2018-06-14T23:06:29.996Z,13.80
2018-06-14T23:08:58.921Z,13.80
2018-06-14T23:11:26.730Z,13.70
2018-06-14T23:13:54.411Z,13.80
2018-06-14T23:16:22.198Z,13.80
2018-06-14T23:18:49.842Z,13.80
2018-06-14T23:21:18.005Z,13.80
2018-06-14T23:23:46.179Z,13.80
2018-06-14T23:26:13.795Z,13.80
2018-06-14T23:28:41.555Z,13.80
2018-06-14T23:31:09.243Z,13.90
2018-06-14T23:33:37.302Z,13.80
2018-06-14T23:36:06.610Z,13.80
2018-06-14T23:38:34.572Z,13.80
2018-06-14T23:41:02.558Z,13.80
2018-06-14T23:43:30.463Z,13.80
2018-06-14T23:45:58.492Z,13.80
2018-06-14T23:48:26.395Z,13.80
2018-06-14T23:50:54.529Z,13.70
2018-06-14T23:53:22.330Z,13.60
2018-06-14T23:55:50.228Z,13.60
2018-06-14T23:58:18.482Z,13.50
